sensor_id;sensor_type;location;lat;lon;timestamp;P1;durP1;ratioP1;P2;durP2;ratioP2
72261;SDS011;60173;52.112;8.648;2023-04-15T00:01:44;16.02;;;10.48;;
72261;SDS011;60173;52.112;8.648;2023-04-15T00:04:11;15.68;;;9.32;;
72261;SDS011;60173;52.112;8.648;2023-04-15T00:06:37;17.45;;;11.35;;
72261;SDS011;60173;52.112;8.648;2023-04-15T00:09:04;18.33;;;11.25;;
72261;SDS011;60173;52.112;8.648;2023-04-15T00:11:30;15.85;;;10.45;;
72261;SDS011;60173;52.112;8.648;2023-04-15T00:13:57;15.57;;;10.75;;
72261;SDS011;60173;52.112;8.648;2023-04-15T00:16:23;16.48;;;10.50;;
72261;SDS011;60173;52.112;8.648;2023-04-15T00:18:50;15.10;;;10.18;;
72261;SDS011;60173;52.112;8.648;2023-04-15T00:21:16;17.40;;;10.73;;
72261;SDS011;60173;52.112;8.648;2023-04-15T00:23:42;14.18;;;10.25;;
72261;SDS011;60173;52.112;8.648;2023-04-15T00:26:09;15.13;;;10.57;;
72261;SDS011;60173;52.112;8.648;2023-04-15T00:28:35;14.70;;;10.65;;
72261;SDS011;60173;52.112;8.648;2023-04-15T00:31:01;18.10;;;10.80;;
72261;SDS011;60173;52.112;8.648;2023-04-15T00:33:28;17.00;;;11.18;;
72261;SDS011;60173;52.112;8.648;2023-04-15T00:35:54;17.25;;;11.38;;
72261;SDS011;60173;52.112;8.648;2023-04-15T00:38:20;17.13;;;12.52;;
72261;SDS011;60173;52.112;8.648;2023-04-15T00:40:47;16.60;;;11.45;;
72261;SDS011;60173;52.112;8.648;2023-04-15T00:43:13;16.42;;;12.10;;
72261;SDS011;60173;52.112;8.648;2023-04-15T00:45:39;19.33;;;12.05;;
72261;SDS011;60173;52.112;8.648;2023-04-15T00:48:06;15.93;;;11.05;;
72261;SDS011;60173;52.112;8.648;2023-04-15T00:50:32;15.63;;;11.85;;
72261;SDS011;60173;52.112;8.648;2023-04-15T00:52:58;20.20;;;11.82;;
72261;SDS011;60173;52.112;8.648;2023-04-15T00:55:25;16.48;;;11.57;;
72261;SDS011;60173;52.112;8.648;2023-04-15T00:57:51;22.52;;;12.45;;
72261;SDS011;60173;52.112;8.648;2023-04-15T01:00:18;21.35;;;12.60;;
72261;SDS011;60173;52.112;8.648;2023-04-15T01:02:45;17.58;;;12.15;;
72261;SDS011;60173;52.112;8.648;2023-04-15T01:05:12;18.48;;;12.73;;
72261;SDS011;60173;52.112;8.648;2023-04-15T01:07:38;19.85;;;12.77;;
72261;SDS011;60173;52.112;8.648;2023-04-15T01:10:05;19.45;;;12.68;;
72261;SDS011;60173;52.112;8.648;2023-04-15T01:12:32;22.65;;;13.10;;
72261;SDS011;60173;52.112;8.648;2023-04-15T01:14:58;18.42;;;12.63;;
72261;SDS011;60173;52.112;8.648;2023-04-15T01:17:25;17.67;;;12.27;;
72261;SDS011;60173;52.112;8.648;2023-04-15T01:19:51;18.27;;;11.40;;
72261;SDS011;60173;52.112;8.648;2023-04-15T01:22:18;18.85;;;12.05;;
72261;SDS011;60173;52.112;8.648;2023-04-15T01:24:53;20.67;;;12.18;;
72261;SDS011;60173;52.112;8.648;2023-04-15T01:27:26;17.90;;;11.85;;
72261;SDS011;60173;52.112;8.648;2023-04-15T01:29:53;18.80;;;12.25;;
72261;SDS011;60173;52.112;8.648;2023-04-15T01:32:19;19.63;;;11.50;;
72261;SDS011;60173;52.112;8.648;2023-04-15T01:34:45;15.25;;;10.60;;
72261;SDS011;60173;52.112;8.648;2023-04-15T01:37:12;18.02;;;11.73;;
72261;SDS011;60173;52.112;8.648;2023-04-15T01:39:38;17.90;;;11.57;;
72261;SDS011;60173;52.112;8.648;2023-04-15T01:42:04;20.30;;;11.50;;
72261;SDS011;60173;52.112;8.648;2023-04-15T01:44:31;17.90;;;11.35;;
72261;SDS011;60173;52.112;8.648;2023-04-15T01:46:57;17.55;;;12.15;;
72261;SDS011;60173;52.112;8.648;2023-04-15T01:49:23;20.80;;;11.73;;
72261;SDS011;60173;52.112;8.648;2023-04-15T01:51:50;17.77;;;11.32;;
72261;SDS011;60173;52.112;8.648;2023-04-15T01:54:16;17.40;;;10.77;;
72261;SDS011;60173;52.112;8.648;2023-04-15T01:56:42;17.60;;;11.98;;
72261;SDS011;60173;52.112;8.648;2023-04-15T01:59:09;16.92;;;11.38;;
72261;SDS011;60173;52.112;8.648;2023-04-15T02:01:35;18.10;;;12.20;;
72261;SDS011;60173;52.112;8.648;2023-04-15T02:04:01;19.42;;;12.63;;
72261;SDS011;60173;52.112;8.648;2023-04-15T02:06:28;19.67;;;12.30;;
72261;SDS011;60173;52.112;8.648;2023-04-15T02:08:54;19.98;;;13.35;;
72261;SDS011;60173;52.112;8.648;2023-04-15T02:11:20;19.88;;;13.05;;
72261;SDS011;60173;52.112;8.648;2023-04-15T02:13:47;23.90;;;13.48;;
72261;SDS011;60173;52.112;8.648;2023-04-15T02:16:16;22.92;;;12.70;;
72261;SDS011;60173;52.112;8.648;2023-04-15T02:18:44;21.17;;;13.27;;
72261;SDS011;60173;52.112;8.648;2023-04-15T02:21:11;23.33;;;13.02;;
72261;SDS011;60173;52.112;8.648;2023-04-15T02:23:38;18.88;;;12.88;;
72261;SDS011;60173;52.112;8.648;2023-04-15T02:26:04;19.25;;;13.10;;
72261;SDS011;60173;52.112;8.648;2023-04-15T02:28:30;23.05;;;13.27;;
72261;SDS011;60173;52.112;8.648;2023-04-15T02:30:56;20.27;;;12.73;;
72261;SDS011;60173;52.112;8.648;2023-04-15T02:33:23;18.58;;;12.65;;
72261;SDS011;60173;52.112;8.648;2023-04-15T02:35:49;20.92;;;13.57;;
72261;SDS011;60173;52.112;8.648;2023-04-15T02:38:15;19.80;;;12.48;;
72261;SDS011;60173;52.112;8.648;2023-04-15T02:40:42;19.90;;;13.73;;
72261;SDS011;60173;52.112;8.648;2023-04-15T02:43:08;21.15;;;13.10;;
72261;SDS011;60173;52.112;8.648;2023-04-15T02:45:35;21.70;;;13.93;;
72261;SDS011;60173;52.112;8.648;2023-04-15T02:48:01;23.02;;;16.05;;
72261;SDS011;60173;52.112;8.648;2023-04-15T02:50:27;25.17;;;17.77;;
72261;SDS011;60173;52.112;8.648;2023-04-15T02:52:54;25.30;;;17.90;;
72261;SDS011;60173;52.112;8.648;2023-04-15T02:55:20;31.40;;;20.55;;
72261;SDS011;60173;52.112;8.648;2023-04-15T02:57:46;26.42;;;17.23;;
72261;SDS011;60173;52.112;8.648;2023-04-15T03:00:13;26.67;;;17.27;;
72261;SDS011;60173;52.112;8.648;2023-04-15T03:02:39;22.27;;;14.98;;
72261;SDS011;60173;52.112;8.648;2023-04-15T03:05:06;21.85;;;15.10;;
72261;SDS011;60173;52.112;8.648;2023-04-15T03:07:36;21.33;;;14.65;;
72261;SDS011;60173;52.112;8.648;2023-04-15T03:10:03;23.13;;;13.68;;
72261;SDS011;60173;52.112;8.648;2023-04-15T03:12:29;23.35;;;14.18;;
72261;SDS011;60173;52.112;8.648;2023-04-15T03:14:56;27.08;;;14.32;;
72261;SDS011;60173;52.112;8.648;2023-04-15T03:17:22;19.75;;;12.75;;
72261;SDS011;60173;52.112;8.648;2023-04-15T03:19:48;22.02;;;13.35;;
72261;SDS011;60173;52.112;8.648;2023-04-15T03:22:15;21.00;;;14.02;;
72261;SDS011;60173;52.112;8.648;2023-04-15T03:24:41;22.55;;;14.48;;
72261;SDS011;60173;52.112;8.648;2023-04-15T03:27:07;22.73;;;13.73;;
72261;SDS011;60173;52.112;8.648;2023-04-15T03:29:34;21.88;;;14.50;;
72261;SDS011;60173;52.112;8.648;2023-04-15T03:32:00;21.20;;;14.10;;
72261;SDS011;60173;52.112;8.648;2023-04-15T03:34:26;22.20;;;14.35;;
72261;SDS011;60173;52.112;8.648;2023-04-15T03:36:53;27.00;;;13.93;;
72261;SDS011;60173;52.112;8.648;2023-04-15T03:39:19;23.08;;;14.05;;
72261;SDS011;60173;52.112;8.648;2023-04-15T03:41:45;25.15;;;15.20;;
72261;SDS011;60173;52.112;8.648;2023-04-15T03:44:12;25.92;;;15.10;;
72261;SDS011;60173;52.112;8.648;2023-04-15T03:46:38;22.48;;;14.48;;
72261;SDS011;60173;52.112;8.648;2023-04-15T03:49:05;24.63;;;14.95;;
72261;SDS011;60173;52.112;8.648;2023-04-15T03:51:32;26.92;;;15.73;;
72261;SDS011;60173;52.112;8.648;2023-04-15T03:53:58;22.13;;;15.48;;
72261;SDS011;60173;52.112;8.648;2023-04-15T03:56:25;27.67;;;15.90;;
72261;SDS011;60173;52.112;8.648;2023-04-15T03:58:51;27.30;;;15.75;;
72261;SDS011;60173;52.112;8.648;2023-04-15T04:01:18;29.42;;;17.23;;
72261;SDS011;60173;52.112;8.648;2023-04-15T04:03:44;28.35;;;17.05;;
72261;SDS011;60173;52.112;8.648;2023-04-15T04:06:11;27.83;;;16.65;;
72261;SDS011;60173;52.112;8.648;2023-04-15T04:08:37;30.27;;;17.95;;
72261;SDS011;60173;52.112;8.648;2023-04-15T04:11:03;30.50;;;17.63;;
72261;SDS011;60173;52.112;8.648;2023-04-15T04:13:30;28.60;;;18.08;;
72261;SDS011;60173;52.112;8.648;2023-04-15T04:15:56;28.52;;;17.27;;
72261;SDS011;60173;52.112;8.648;2023-04-15T04:18:23;27.80;;;16.40;;
72261;SDS011;60173;52.112;8.648;2023-04-15T04:20:49;30.27;;;17.38;;
72261;SDS011;60173;52.112;8.648;2023-04-15T04:23:15;27.75;;;15.88;;
72261;SDS011;60173;52.112;8.648;2023-04-15T04:25:42;27.45;;;15.73;;
72261;SDS011;60173;52.112;8.648;2023-04-15T04:28:08;26.30;;;17.60;;
72261;SDS011;60173;52.112;8.648;2023-04-15T04:30:34;27.60;;;16.75;;
72261;SDS011;60173;52.112;8.648;2023-04-15T04:33:01;23.60;;;14.75;;
72261;SDS011;60173;52.112;8.648;2023-04-15T04:35:27;22.88;;;14.20;;
72261;SDS011;60173;52.112;8.648;2023-04-15T04:37:54;25.38;;;15.52;;
72261;SDS011;60173;52.112;8.648;2023-04-15T04:40:20;25.30;;;15.82;;
72261;SDS011;60173;52.112;8.648;2023-04-15T04:42:46;34.60;;;17.67;;
72261;SDS011;60173;52.112;8.648;2023-04-15T04:45:13;27.60;;;17.23;;
72261;SDS011;60173;52.112;8.648;2023-04-15T04:47:39;31.45;;;19.55;;
72261;SDS011;60173;52.112;8.648;2023-04-15T04:50:05;34.67;;;19.67;;
72261;SDS011;60173;52.112;8.648;2023-04-15T04:52:32;36.63;;;21.52;;
72261;SDS011;60173;52.112;8.648;2023-04-15T04:54:59;34.00;;;20.77;;
72261;SDS011;60173;52.112;8.648;2023-04-15T04:57:25;35.22;;;20.92;;
72261;SDS011;60173;52.112;8.648;2023-04-15T04:59:51;37.85;;;21.65;;
72261;SDS011;60173;52.112;8.648;2023-04-15T05:02:18;39.28;;;22.25;;
72261;SDS011;60173;52.112;8.648;2023-04-15T05:04:44;37.17;;;21.25;;
72261;SDS011;60173;52.112;8.648;2023-04-15T05:07:10;36.67;;;22.02;;
72261;SDS011;60173;52.112;8.648;2023-04-15T05:09:37;40.00;;;23.65;;
72261;SDS011;60173;52.112;8.648;2023-04-15T05:12:03;40.38;;;22.83;;
72261;SDS011;60173;52.112;8.648;2023-04-15T05:14:30;40.15;;;22.33;;
72261;SDS011;60173;52.112;8.648;2023-04-15T05:16:56;39.47;;;23.27;;
72261;SDS011;60173;52.112;8.648;2023-04-15T05:19:22;41.83;;;23.38;;
72261;SDS011;60173;52.112;8.648;2023-04-15T05:21:49;43.35;;;24.30;;
72261;SDS011;60173;52.112;8.648;2023-04-15T05:24:15;41.53;;;24.42;;
72261;SDS011;60173;52.112;8.648;2023-04-15T05:26:41;37.83;;;22.80;;
72261;SDS011;60173;52.112;8.648;2023-04-15T05:29:08;39.35;;;22.77;;
72261;SDS011;60173;52.112;8.648;2023-04-15T05:31:34;42.13;;;25.27;;
72261;SDS011;60173;52.112;8.648;2023-04-15T05:34:01;40.45;;;23.33;;
72261;SDS011;60173;52.112;8.648;2023-04-15T05:36:27;40.33;;;24.73;;
72261;SDS011;60173;52.112;8.648;2023-04-15T05:38:54;43.88;;;25.40;;
72261;SDS011;60173;52.112;8.648;2023-04-15T05:41:20;39.72;;;24.23;;
72261;SDS011;60173;52.112;8.648;2023-04-15T05:43:47;44.80;;;24.30;;
72261;SDS011;60173;52.112;8.648;2023-04-15T05:46:13;42.10;;;25.45;;
72261;SDS011;60173;52.112;8.648;2023-04-15T05:48:39;40.00;;;23.15;;
72261;SDS011;60173;52.112;8.648;2023-04-15T05:51:06;42.40;;;24.35;;
72261;SDS011;60173;52.112;8.648;2023-04-15T05:53:32;42.00;;;23.63;;
72261;SDS011;60173;52.112;8.648;2023-04-15T05:55:58;49.90;;;26.40;;
72261;SDS011;60173;52.112;8.648;2023-04-15T05:58:25;42.63;;;24.73;;
72261;SDS011;60173;52.112;8.648;2023-04-15T06:00:51;41.08;;;23.90;;
72261;SDS011;60173;52.112;8.648;2023-04-15T06:03:18;38.95;;;24.00;;
72261;SDS011;60173;52.112;8.648;2023-04-15T06:05:44;42.05;;;25.80;;
72261;SDS011;60173;52.112;8.648;2023-04-15T06:08:10;42.90;;;25.13;;
72261;SDS011;60173;52.112;8.648;2023-04-15T06:10:37;43.58;;;26.60;;
72261;SDS011;60173;52.112;8.648;2023-04-15T06:13:03;43.25;;;25.45;;
72261;SDS011;60173;52.112;8.648;2023-04-15T06:15:30;44.95;;;26.40;;
72261;SDS011;60173;52.112;8.648;2023-04-15T06:17:56;46.88;;;26.25;;
72261;SDS011;60173;52.112;8.648;2023-04-15T06:20:23;49.63;;;27.95;;
72261;SDS011;60173;52.112;8.648;2023-04-15T06:22:49;44.53;;;26.73;;
72261;SDS011;60173;52.112;8.648;2023-04-15T06:25:15;50.83;;;28.40;;
72261;SDS011;60173;52.112;8.648;2023-04-15T06:27:42;54.15;;;30.67;;
72261;SDS011;60173;52.112;8.648;2023-04-15T06:30:08;63.85;;;34.95;;
72261;SDS011;60173;52.112;8.648;2023-04-15T06:32:35;62.65;;;34.55;;
72261;SDS011;60173;52.112;8.648;2023-04-15T06:35:01;71.28;;;37.38;;
72261;SDS011;60173;52.112;8.648;2023-04-15T06:37:28;70.00;;;37.20;;
72261;SDS011;60173;52.112;8.648;2023-04-15T06:39:54;71.82;;;38.88;;
72261;SDS011;60173;52.112;8.648;2023-04-15T06:42:20;76.35;;;39.85;;
72261;SDS011;60173;52.112;8.648;2023-04-15T06:44:47;66.68;;;35.97;;
72261;SDS011;60173;52.112;8.648;2023-04-15T06:47:14;66.13;;;33.95;;
72261;SDS011;60173;52.112;8.648;2023-04-15T06:49:40;56.65;;;30.75;;
72261;SDS011;60173;52.112;8.648;2023-04-15T06:52:06;63.97;;;33.33;;
72261;SDS011;60173;52.112;8.648;2023-04-15T06:54:33;61.38;;;31.55;;
72261;SDS011;60173;52.112;8.648;2023-04-15T06:56:59;64.05;;;33.05;;
72261;SDS011;60173;52.112;8.648;2023-04-15T06:59:25;60.58;;;30.90;;
72261;SDS011;60173;52.112;8.648;2023-04-15T07:01:52;57.65;;;29.10;;
72261;SDS011;60173;52.112;8.648;2023-04-15T07:04:18;62.38;;;31.45;;
72261;SDS011;60173;52.112;8.648;2023-04-15T07:06:45;67.03;;;31.88;;
72261;SDS011;60173;52.112;8.648;2023-04-15T07:09:11;71.13;;;33.65;;
72261;SDS011;60173;52.112;8.648;2023-04-15T07:11:37;70.90;;;33.50;;
72261;SDS011;60173;52.112;8.648;2023-04-15T07:14:04;78.82;;;35.40;;
72261;SDS011;60173;52.112;8.648;2023-04-15T07:16:30;80.15;;;33.88;;
72261;SDS011;60173;52.112;8.648;2023-04-15T07:18:56;78.82;;;35.05;;
72261;SDS011;60173;52.112;8.648;2023-04-15T07:21:24;87.57;;;37.55;;
72261;SDS011;60173;52.112;8.648;2023-04-15T07:23:50;78.40;;;33.63;;
72261;SDS011;60173;52.112;8.648;2023-04-15T07:26:17;81.07;;;33.90;;
72261;SDS011;60173;52.112;8.648;2023-04-15T07:28:43;84.05;;;34.63;;
72261;SDS011;60173;52.112;8.648;2023-04-15T07:31:10;80.82;;;33.97;;
72261;SDS011;60173;52.112;8.648;2023-04-15T07:33:36;74.55;;;33.08;;
72261;SDS011;60173;52.112;8.648;2023-04-15T07:36:02;78.32;;;33.60;;
72261;SDS011;60173;52.112;8.648;2023-04-15T07:38:29;68.90;;;30.85;;
72261;SDS011;60173;52.112;8.648;2023-04-15T07:40:55;73.20;;;30.45;;
72261;SDS011;60173;52.112;8.648;2023-04-15T07:43:22;67.15;;;29.73;;
72261;SDS011;60173;52.112;8.648;2023-04-15T07:45:48;61.72;;;28.35;;
72261;SDS011;60173;52.112;8.648;2023-04-15T07:48:15;61.95;;;28.67;;
72261;SDS011;60173;52.112;8.648;2023-04-15T07:50:41;64.75;;;28.35;;
72261;SDS011;60173;52.112;8.648;2023-04-15T07:53:07;62.28;;;27.27;;
72261;SDS011;60173;52.112;8.648;2023-04-15T07:55:34;52.03;;;26.50;;
72261;SDS011;60173;52.112;8.648;2023-04-15T07:58:00;53.35;;;24.98;;
72261;SDS011;60173;52.112;8.648;2023-04-15T08:00:26;53.70;;;26.15;;
72261;SDS011;60173;52.112;8.648;2023-04-15T08:02:53;51.03;;;24.73;;
72261;SDS011;60173;52.112;8.648;2023-04-15T08:05:19;53.50;;;24.50;;
72261;SDS011;60173;52.112;8.648;2023-04-15T08:07:46;49.08;;;23.85;;
72261;SDS011;60173;52.112;8.648;2023-04-15T08:10:13;52.95;;;25.73;;
72261;SDS011;60173;52.112;8.648;2023-04-15T08:12:39;47.60;;;23.88;;
72261;SDS011;60173;52.112;8.648;2023-04-15T08:15:06;50.00;;;25.75;;
72261;SDS011;60173;52.112;8.648;2023-04-15T08:17:32;48.25;;;24.30;;
72261;SDS011;60173;52.112;8.648;2023-04-15T08:19:59;49.03;;;24.35;;
72261;SDS011;60173;52.112;8.648;2023-04-15T08:22:25;52.00;;;24.50;;
72261;SDS011;60173;52.112;8.648;2023-04-15T08:24:51;55.60;;;25.83;;
72261;SDS011;60173;52.112;8.648;2023-04-15T08:27:18;46.55;;;22.23;;
72261;SDS011;60173;52.112;8.648;2023-04-15T08:29:44;44.50;;;23.27;;
72261;SDS011;60173;52.112;8.648;2023-04-15T08:32:10;44.70;;;22.00;;
72261;SDS011;60173;52.112;8.648;2023-04-15T08:34:37;42.08;;;22.88;;
72261;SDS011;60173;52.112;8.648;2023-04-15T08:37:03;41.75;;;22.33;;
72261;SDS011;60173;52.112;8.648;2023-04-15T08:39:30;41.33;;;22.65;;
72261;SDS011;60173;52.112;8.648;2023-04-15T08:42:00;40.13;;;20.63;;
72261;SDS011;60173;52.112;8.648;2023-04-15T08:44:32;38.15;;;20.35;;
72261;SDS011;60173;52.112;8.648;2023-04-15T08:47:00;38.55;;;20.00;;
72261;SDS011;60173;52.112;8.648;2023-04-15T08:49:27;36.22;;;20.80;;
72261;SDS011;60173;52.112;8.648;2023-04-15T08:51:54;39.85;;;20.63;;
72261;SDS011;60173;52.112;8.648;2023-04-15T08:54:24;36.72;;;20.02;;
72261;SDS011;60173;52.112;8.648;2023-04-15T08:56:52;33.67;;;19.27;;
72261;SDS011;60173;52.112;8.648;2023-04-15T08:59:19;38.63;;;20.27;;
72261;SDS011;60173;52.112;8.648;2023-04-15T09:01:47;31.85;;;17.92;;
72261;SDS011;60173;52.112;8.648;2023-04-15T09:04:15;32.25;;;18.10;;
72261;SDS011;60173;52.112;8.648;2023-04-15T09:06:42;29.70;;;18.05;;
72261;SDS011;60173;52.112;8.648;2023-04-15T09:09:08;28.80;;;16.58;;
72261;SDS011;60173;52.112;8.648;2023-04-15T09:11:35;29.67;;;16.77;;
72261;SDS011;60173;52.112;8.648;2023-04-15T09:14:01;27.25;;;16.00;;
72261;SDS011;60173;52.112;8.648;2023-04-15T09:16:27;28.33;;;16.83;;
72261;SDS011;60173;52.112;8.648;2023-04-15T09:18:54;29.33;;;16.33;;
72261;SDS011;60173;52.112;8.648;2023-04-15T09:21:20;27.25;;;16.10;;
72261;SDS011;60173;52.112;8.648;2023-04-15T09:23:53;24.50;;;15.25;;
72261;SDS011;60173;52.112;8.648;2023-04-15T09:26:29;26.83;;;16.20;;
72261;SDS011;60173;52.112;8.648;2023-04-15T09:29:03;24.58;;;15.10;;
72261;SDS011;60173;52.112;8.648;2023-04-15T09:31:30;27.00;;;15.40;;
72261;SDS011;60173;52.112;8.648;2023-04-15T09:33:57;24.20;;;15.52;;
72261;SDS011;60173;52.112;8.648;2023-04-15T09:36:23;29.05;;;16.92;;
72261;SDS011;60173;52.112;8.648;2023-04-15T09:38:54;30.02;;;17.50;;
72261;SDS011;60173;52.112;8.648;2023-04-15T09:41:24;27.80;;;17.08;;
72261;SDS011;60173;52.112;8.648;2023-04-15T09:43:52;30.10;;;17.13;;
72261;SDS011;60173;52.112;8.648;2023-04-15T09:46:19;28.52;;;15.85;;
72261;SDS011;60173;52.112;8.648;2023-04-15T09:48:45;25.48;;;15.73;;
72261;SDS011;60173;52.112;8.648;2023-04-15T09:51:12;24.20;;;15.00;;
72261;SDS011;60173;52.112;8.648;2023-04-15T09:53:38;27.10;;;15.10;;
72261;SDS011;60173;52.112;8.648;2023-04-15T09:56:05;27.83;;;14.52;;
72261;SDS011;60173;52.112;8.648;2023-04-15T09:58:32;27.15;;;15.82;;
72261;SDS011;60173;52.112;8.648;2023-04-15T10:01:00;23.20;;;14.15;;
72261;SDS011;60173;52.112;8.648;2023-04-15T10:03:28;24.58;;;15.23;;
72261;SDS011;60173;52.112;8.648;2023-04-15T10:05:57;24.77;;;15.35;;
72261;SDS011;60173;52.112;8.648;2023-04-15T10:08:26;23.85;;;14.02;;
72261;SDS011;60173;52.112;8.648;2023-04-15T10:10:54;21.73;;;14.18;;
72261;SDS011;60173;52.112;8.648;2023-04-15T10:13:22;24.70;;;14.32;;
72261;SDS011;60173;52.112;8.648;2023-04-15T10:15:50;21.23;;;13.48;;
72261;SDS011;60173;52.112;8.648;2023-04-15T10:18:25;19.90;;;13.10;;
72261;SDS011;60173;52.112;8.648;2023-04-15T10:20:53;24.25;;;13.40;;
72261;SDS011;60173;52.112;8.648;2023-04-15T10:23:21;22.92;;;14.07;;
72261;SDS011;60173;52.112;8.648;2023-04-15T10:25:48;22.85;;;13.50;;
72261;SDS011;60173;52.112;8.648;2023-04-15T10:28:17;21.85;;;13.30;;
72261;SDS011;60173;52.112;8.648;2023-04-15T10:30:45;17.98;;;11.80;;
72261;SDS011;60173;52.112;8.648;2023-04-15T10:33:13;23.27;;;13.70;;
72261;SDS011;60173;52.112;8.648;2023-04-15T10:35:40;23.60;;;14.15;;
72261;SDS011;60173;52.112;8.648;2023-04-15T10:38:30;21.75;;;13.20;;
72261;SDS011;60173;52.112;8.648;2023-04-15T10:43:47;23.92;;;13.60;;
72261;SDS011;60173;52.112;8.648;2023-04-15T10:48:59;25.90;;;15.15;;
72261;SDS011;60173;52.112;8.648;2023-04-15T10:51:32;25.40;;;15.73;;
72261;SDS011;60173;52.112;8.648;2023-04-15T10:53:59;27.13;;;15.50;;
72261;SDS011;60173;52.112;8.648;2023-04-15T10:56:27;23.77;;;15.05;;
72261;SDS011;60173;52.112;8.648;2023-04-15T10:58:53;25.60;;;16.67;;
72261;SDS011;60173;52.112;8.648;2023-04-15T11:01:20;21.33;;;14.48;;
72261;SDS011;60173;52.112;8.648;2023-04-15T11:03:47;23.20;;;15.07;;
72261;SDS011;60173;52.112;8.648;2023-04-15T11:06:14;23.33;;;14.48;;
72261;SDS011;60173;52.112;8.648;2023-04-15T11:11:29;22.17;;;15.15;;
72261;SDS011;60173;52.112;8.648;2023-04-15T11:14:27;21.13;;;14.57;;
72261;SDS011;60173;52.112;8.648;2023-04-15T11:16:54;22.23;;;14.32;;
72261;SDS011;60173;52.112;8.648;2023-04-15T11:19:20;22.17;;;14.50;;
72261;SDS011;60173;52.112;8.648;2023-04-15T11:21:46;24.23;;;15.00;;
72261;SDS011;60173;52.112;8.648;2023-04-15T11:24:22;23.50;;;14.68;;
72261;SDS011;60173;52.112;8.648;2023-04-15T11:26:50;19.90;;;13.43;;
72261;SDS011;60173;52.112;8.648;2023-04-15T11:29:17;18.27;;;13.07;;
72261;SDS011;60173;52.112;8.648;2023-04-15T11:31:45;17.15;;;12.73;;
72261;SDS011;60173;52.112;8.648;2023-04-15T11:34:12;17.73;;;12.32;;
72261;SDS011;60173;52.112;8.648;2023-04-15T11:36:47;18.50;;;12.73;;
72261;SDS011;60173;52.112;8.648;2023-04-15T11:39:14;18.00;;;11.63;;
72261;SDS011;60173;52.112;8.648;2023-04-15T11:41:40;17.00;;;11.25;;
72261;SDS011;60173;52.112;8.648;2023-04-15T11:44:16;18.13;;;13.23;;
72261;SDS011;60173;52.112;8.648;2023-04-15T11:46:43;19.02;;;12.05;;
72261;SDS011;60173;52.112;8.648;2023-04-15T11:49:10;17.67;;;12.25;;
72261;SDS011;60173;52.112;8.648;2023-04-15T11:51:37;15.75;;;11.13;;
72261;SDS011;60173;52.112;8.648;2023-04-15T11:54:03;16.15;;;11.77;;
72261;SDS011;60173;52.112;8.648;2023-04-15T11:56:30;12.50;;;8.88;;
72261;SDS011;60173;52.112;8.648;2023-04-15T11:58:57;12.05;;;8.98;;
72261;SDS011;60173;52.112;8.648;2023-04-15T12:01:37;13.20;;;9.15;;
72261;SDS011;60173;52.112;8.648;2023-04-15T12:04:13;14.02;;;9.60;;
72261;SDS011;60173;52.112;8.648;2023-04-15T12:06:41;12.57;;;9.00;;
72261;SDS011;60173;52.112;8.648;2023-04-15T12:09:11;10.75;;;8.25;;
72261;SDS011;60173;52.112;8.648;2023-04-15T12:11:39;12.68;;;8.45;;
72261;SDS011;60173;52.112;8.648;2023-04-15T12:14:24;11.35;;;8.20;;
72261;SDS011;60173;52.112;8.648;2023-04-15T12:16:56;10.50;;;8.60;;
72261;SDS011;60173;52.112;8.648;2023-04-15T12:19:36;11.38;;;8.40;;
72261;SDS011;60173;52.112;8.648;2023-04-15T12:24:32;12.60;;;8.20;;
72261;SDS011;60173;52.112;8.648;2023-04-15T12:27:03;10.05;;;8.13;;
72261;SDS011;60173;52.112;8.648;2023-04-15T12:29:32;10.90;;;8.60;;
72261;SDS011;60173;52.112;8.648;2023-04-15T12:32:06;12.02;;;8.63;;
72261;SDS011;60173;52.112;8.648;2023-04-15T12:34:38;10.70;;;8.27;;
72261;SDS011;60173;52.112;8.648;2023-04-15T12:37:18;9.98;;;8.23;;
72261;SDS011;60173;52.112;8.648;2023-04-15T12:39:45;9.88;;;8.00;;
72261;SDS011;60173;52.112;8.648;2023-04-15T12:42:13;10.85;;;8.13;;
72261;SDS011;60173;52.112;8.648;2023-04-15T12:44:40;10.15;;;8.43;;
72261;SDS011;60173;52.112;8.648;2023-04-15T12:47:07;11.48;;;7.88;;
72261;SDS011;60173;52.112;8.648;2023-04-15T12:49:34;9.15;;;7.80;;
72261;SDS011;60173;52.112;8.648;2023-04-15T12:52:01;12.18;;;9.02;;
72261;SDS011;60173;52.112;8.648;2023-04-15T12:54:28;12.45;;;9.32;;
72261;SDS011;60173;52.112;8.648;2023-04-15T12:56:56;12.95;;;9.80;;
72261;SDS011;60173;52.112;8.648;2023-04-15T12:59:23;11.93;;;8.80;;
72261;SDS011;60173;52.112;8.648;2023-04-15T13:01:50;14.75;;;10.05;;
72261;SDS011;60173;52.112;8.648;2023-04-15T13:04:17;14.00;;;10.10;;
72261;SDS011;60173;52.112;8.648;2023-04-15T13:06:44;17.67;;;12.43;;
72261;SDS011;60173;52.112;8.648;2023-04-15T13:09:11;16.73;;;11.93;;
72261;SDS011;60173;52.112;8.648;2023-04-15T13:11:37;16.40;;;11.93;;
72261;SDS011;60173;52.112;8.648;2023-04-15T13:14:05;19.48;;;13.52;;
72261;SDS011;60173;52.112;8.648;2023-04-15T13:16:33;19.90;;;13.05;;
72261;SDS011;60173;52.112;8.648;2023-04-15T13:19:01;18.42;;;12.85;;
72261;SDS011;60173;52.112;8.648;2023-04-15T13:21:28;19.15;;;13.43;;
72261;SDS011;60173;52.112;8.648;2023-04-15T13:23:55;19.73;;;13.38;;
72261;SDS011;60173;52.112;8.648;2023-04-15T13:26:21;22.00;;;13.63;;
72261;SDS011;60173;52.112;8.648;2023-04-15T13:28:47;18.75;;;14.15;;
72261;SDS011;60173;52.112;8.648;2023-04-15T13:31:14;18.48;;;13.10;;
72261;SDS011;60173;52.112;8.648;2023-04-15T13:33:40;20.83;;;14.85;;
72261;SDS011;60173;52.112;8.648;2023-04-15T13:36:07;21.33;;;15.00;;
72261;SDS011;60173;52.112;8.648;2023-04-15T13:38:33;20.17;;;13.23;;
72261;SDS011;60173;52.112;8.648;2023-04-15T13:40:59;25.30;;;14.52;;
72261;SDS011;60173;52.112;8.648;2023-04-15T13:43:26;22.77;;;14.45;;
72261;SDS011;60173;52.112;8.648;2023-04-15T13:45:52;21.02;;;13.93;;
72261;SDS011;60173;52.112;8.648;2023-04-15T13:48:18;21.38;;;15.15;;
72261;SDS011;60173;52.112;8.648;2023-04-15T13:50:45;23.02;;;15.35;;
72261;SDS011;60173;52.112;8.648;2023-04-15T13:53:11;22.98;;;15.18;;
72261;SDS011;60173;52.112;8.648;2023-04-15T13:55:38;23.38;;;15.65;;
72261;SDS011;60173;52.112;8.648;2023-04-15T13:58:06;23.50;;;15.38;;
72261;SDS011;60173;52.112;8.648;2023-04-15T14:00:33;24.23;;;15.27;;
72261;SDS011;60173;52.112;8.648;2023-04-15T14:02:59;22.92;;;15.60;;
72261;SDS011;60173;52.112;8.648;2023-04-15T14:05:26;28.50;;;15.77;;
72261;SDS011;60173;52.112;8.648;2023-04-15T14:07:52;29.83;;;17.17;;
72261;SDS011;60173;52.112;8.648;2023-04-15T14:10:19;29.35;;;17.10;;
72261;SDS011;60173;52.112;8.648;2023-04-15T14:12:45;27.30;;;17.40;;
72261;SDS011;60173;52.112;8.648;2023-04-15T14:15:11;31.33;;;18.35;;
72261;SDS011;60173;52.112;8.648;2023-04-15T14:17:38;29.45;;;19.00;;
72261;SDS011;60173;52.112;8.648;2023-04-15T14:20:05;37.03;;;19.45;;
72261;SDS011;60173;52.112;8.648;2023-04-15T14:22:33;36.40;;;21.80;;
72261;SDS011;60173;52.112;8.648;2023-04-15T14:24:59;35.47;;;21.73;;
72261;SDS011;60173;52.112;8.648;2023-04-15T14:27:25;37.42;;;20.83;;
72261;SDS011;60173;52.112;8.648;2023-04-15T14:29:52;35.03;;;22.02;;
72261;SDS011;60173;52.112;8.648;2023-04-15T14:32:18;38.13;;;21.95;;
72261;SDS011;60173;52.112;8.648;2023-04-15T14:34:45;36.90;;;22.20;;